Time;durP1;ratioP1;P1;durP2;ratioP2;P2;SDS_P1;SDS_P2;PMS_P1;PMS_P2;Temp;Humidity;BMP_temperature;BMP_pressure;BME280_temperature;BME280_humidity;BME280_pressure;Samples;Min_cycle;Max_cycle;Signal;HPM_P1;HPM_P2
2022/07/24 00:00:39;;;;;;;;;;;;;;;23.71;52.97;101470.84;7287328;19;153586;-63
2022/07/24 00:03:06;;;;;;;;;;;;;;;23.65;53.41;101463.63;7286578;19;153277;-64
2022/07/24 00:05:33;;;;;;;;;;;;;;;23.68;53.39;101463.81;7284930;19;153223;-63
2022/07/24 00:08:00;;;;;;;;;;;;;;;23.70;53.12;101464.34;7286357;19;152448;-63
2022/07/24 00:10:27;;;;;;;;;;;;;;;23.66;53.15;101460.50;7287451;19;151695;-64
2022/07/24 00:12:53;;;;;;;;;;;;;;;23.78;52.98;101468.41;7286244;19;152909;-63
2022/07/24 00:15:20;;;;;;;;;;;;;;;23.79;52.95;101461.59;7293369;19;152529;-63
2022/07/24 00:17:47;;;;;;;;;;;;;;;23.72;53.17;101461.19;7288092;19;153485;-63
2022/07/24 00:20:14;;;;;;;;;;;;;;;23.63;53.69;101472.41;7283998;19;153181;-64
2022/07/24 00:22:40;;;;;;;;;;;;;;;23.68;53.85;101472.28;7287541;19;152514;-63
2022/07/24 00:25:07;;;;;;;;;;;;;;;23.69;53.36;101470.31;7287282;19;153263;-63
2022/07/24 00:27:34;;;;;;;;;;;;;;;23.71;53.13;101466.00;7284631;19;153532;-63
2022/07/24 00:30:00;;;;;;;;;;;;;;;23.68;53.37;101477.09;7287346;19;152275;-63
2022/07/24 00:32:27;;;;;;;;;;;;;;;23.69;53.61;101462.69;7287700;19;153394;-64
2022/07/24 00:34:54;;;;;;;;;;;;;;;23.64;53.88;101471.25;7283695;19;153825;-63
2022/07/24 00:37:20;;;;;;;;;;;;;;;23.68;53.44;101458.19;7294142;19;151784;-63
2022/07/24 00:39:47;;;;;;;;;;;;;;;23.66;53.46;101468.97;7285818;19;153842;-63
2022/07/24 00:42:14;;;;;;;;;;;;;;;23.66;53.89;101457.69;7286715;19;152643;-63
2022/07/24 00:44:41;;;;;;;;;;;;;;;23.68;53.66;101460.16;7284723;19;153327;-64
2022/07/24 00:47:07;;;;;;;;;;;;;;;23.62;53.73;101456.63;7283716;19;153954;-63
2022/07/24 00:49:34;;;;;;;;;;;;;;;23.69;53.83;101462.69;7284251;19;154257;-64
2022/07/24 00:52:01;;;;;;;;;;;;;;;23.57;54.19;101450.28;7285392;19;152277;-63
2022/07/24 00:54:27;;;;;;;;;;;;;;;23.58;54.22;101455.59;7281406;19;155785;-63
2022/07/24 00:56:54;;;;;;;;;;;;;;;23.68;54.01;101461.00;7286372;19;152623;-63
2022/07/24 00:59:22;;;;;;;;;;;;;;;23.58;54.44;101455.59;7292364;19;153685;-63
2022/07/24 01:01:49;;;;;;;;;;;;;;;23.60;54.31;101458.09;7287082;19;152272;-63
2022/07/24 01:04:16;;;;;;;;;;;;;;;23.60;54.50;101444.84;7280556;19;152605;-63
2022/07/24 01:06:43;;;;;;;;;;;;;;;23.65;54.02;101439.06;7283779;19;154049;-63
2022/07/24 01:09:11;;;;;;;;;;;;;;;23.58;54.63;101440.63;7285007;19;153033;-63
2022/07/24 01:11:38;;;;;;;;;;;;;;;23.61;54.49;101440.03;7286630;19;153541;-63
2022/07/24 01:14:06;;;;;;;;;;;;;;;23.66;54.45;101443.56;7285216;19;154649;-63
2022/07/24 01:16:33;;;;;;;;;;;;;;;23.56;54.70;101448.59;7283750;19;152841;-63
2022/07/24 01:19:00;;;;;;;;;;;;;;;23.51;54.93;101435.44;7283654;19;152205;-63
2022/07/24 01:21:27;;;;;;;;;;;;;;;23.49;54.79;101430.13;7290733;19;152772;-63
2022/07/24 01:23:54;;;;;;;;;;;;;;;23.59;54.75;101431.88;7285842;19;153566;-63
2022/07/24 01:26:21;;;;;;;;;;;;;;;23.52;54.83;101433.47;7284061;19;153432;-63
2022/07/24 01:28:47;;;;;;;;;;;;;;;23.46;55.13;101439.22;7285933;19;152165;-63
2022/07/24 01:31:14;;;;;;;;;;;;;;;23.57;54.70;101444.63;7282015;19;153346;-63
2022/07/24 01:33:41;;;;;;;;;;;;;;;23.52;55.48;101430.66;7282067;19;153304;-64
2022/07/24 01:36:08;;;;;;;;;;;;;;;23.54;55.36;101434.81;7286140;19;152306;-63
2022/07/24 01:38:34;;;;;;;;;;;;;;;23.52;55.09;101436.28;7285486;19;153415;-63
2022/07/24 01:41:01;;;;;;;;;;;;;;;23.39;55.63;101433.13;7284755;19;152861;-63
2022/07/24 01:43:28;;;;;;;;;;;;;;;23.48;55.26;101436.91;7291983;19;153562;-63
2022/07/24 01:45:54;;;;;;;;;;;;;;;23.43;55.36;101434.19;7283434;19;152579;-64
2022/07/24 01:48:21;;;;;;;;;;;;;;;23.44;55.61;101429.38;7282738;19;152566;-63
2022/07/24 01:50:48;;;;;;;;;;;;;;;23.39;55.69;101423.84;7282193;19;152424;-63
2022/07/24 01:53:15;;;;;;;;;;;;;;;23.39;55.64;101421.03;7283314;19;153481;-63
2022/07/24 01:55:42;;;;;;;;;;;;;;;23.40;55.50;101417.03;7284917;19;152623;-63
2022/07/24 01:58:08;;;;;;;;;;;;;;;23.44;55.00;101409.66;7285136;19;153409;-63
2022/07/24 02:00:36;;;;;;;;;;;;;;;23.38;55.44;101408.09;7283287;19;154398;-63
2022/07/24 02:03:03;;;;;;;;;;;;;;;23.36;55.55;101413.19;7283635;19;152005;-64
2022/07/24 02:05:30;;;;;;;;;;;;;;;23.32;55.73;101424.28;7287136;19;153663;-63
2022/07/24 02:07:57;;;;;;;;;;;;;;;23.30;55.75;101420.94;7282839;19;152434;-63
2022/07/24 02:10:25;;;;;;;;;;;;;;;23.35;55.65;101420.81;7285092;19;153036;-63
2022/07/24 02:12:52;;;;;;;;;;;;;;;23.32;55.91;101421.47;7283514;19;153230;-63
2022/07/24 02:15:19;;;;;;;;;;;;;;;23.37;55.50;101418.53;7283787;19;154033;-63
2022/07/24 02:17:46;;;;;;;;;;;;;;;23.28;56.34;101436.50;7285132;19;153242;-63
2022/07/24 02:20:13;;;;;;;;;;;;;;;23.32;55.71;101417.78;7276675;19;156695;-63
2022/07/24 02:22:40;;;;;;;;;;;;;;;23.29;55.72;101405.19;7284252;19;152188;-63
2022/07/24 02:25:07;;;;;;;;;;;;;;;23.32;55.65;101413.00;7290555;19;153484;-63
2022/07/24 02:27:34;;;;;;;;;;;;;;;23.22;56.40;101424.50;7283196;19;152396;-63
2022/07/24 02:30:01;;;;;;;;;;;;;;;23.25;56.06;101414.59;7284266;19;152911;-63
2022/07/24 02:32:28;;;;;;;;;;;;;;;23.33;55.83;101411.84;7280006;19;154645;-63
2022/07/24 02:34:54;;;;;;;;;;;;;;;23.21;56.36;101414.38;7281210;19;153074;-63
2022/07/24 02:37:21;;;;;;;;;;;;;;;23.26;56.10;101419.09;7282575;19;152624;-63
2022/07/24 02:39:51;;;;;;;;;;;;;;;23.35;55.63;101419.97;7283880;19;153176;-63
2022/07/24 02:42:17;;;;;;;;;;;;;;;23.25;56.18;101412.59;7284248;19;151750;-64
2022/07/24 02:44:44;;;;;;;;;;;;;;;23.32;55.96;101423.44;7283399;19;153572;-63
2022/07/24 02:47:11;;;;;;;;;;;;;;;23.27;55.96;101407.47;7286944;19;153899;-63
2022/07/24 02:49:37;;;;;;;;;;;;;;;23.25;56.05;101411.75;7280996;19;153382;-64
2022/07/24 02:52:04;;;;;;;;;;;;;;;23.29;55.57;101413.63;7281670;19;153020;-63
2022/07/24 02:54:31;;;;;;;;;;;;;;;23.21;55.85;101420.03;7283784;19;152054;-63
2022/07/24 02:56:57;;;;;;;;;;;;;;;23.29;55.90;101412.81;7283368;19;153353;-63
2022/07/24 02:59:24;;;;;;;;;;;;;;;23.29;55.86;101412.81;7281170;19;153312;-64
2022/07/24 03:01:51;;;;;;;;;;;;;;;23.30;55.69;101417.28;7282881;19;152256;-63
2022/07/24 03:04:18;;;;;;;;;;;;;;;23.29;55.85;101419.28;7278067;19;152580;-63
2022/07/24 03:06:44;;;;;;;;;;;;;;;23.23;55.63;101419.69;7280036;19;153861;-63
2022/07/24 03:09:11;;;;;;;;;;;;;;;23.25;55.65;101412.59;7290594;19;154002;-63
2022/07/24 03:11:38;;;;;;;;;;;;;;;23.21;55.70;101400.28;7281420;19;154093;-63
2022/07/24 03:14:04;;;;;;;;;;;;;;;23.25;55.97;101392.88;7282339;19;151847;-63
2022/07/24 03:16:34;;;;;;;;;;;;;;;23.17;55.96;101399.22;7281598;19;152429;-63
2022/07/24 03:19:04;;;;;;;;;;;;;;;23.17;55.87;101399.22;7283197;19;154328;-63
2022/07/24 03:21:31;;;;;;;;;;;;;;;23.21;55.71;101397.47;7286968;19;151995;-63
2022/07/24 03:24:13;;;;;;;;;;;;;;;23.28;55.73;101397.03;7288513;19;153633;-63
2022/07/24 03:26:40;;;;;;;;;;;;;;;23.19;55.77;101399.75;7286569;19;153351;-63
2022/07/24 03:29:07;;;;;;;;;;;;;;;23.24;56.00;101399.66;7289433;19;152303;-63
2022/07/24 03:31:34;;;;;;;;;;;;;;;23.29;55.58;101401.53;7295114;19;153323;-63
2022/07/24 03:34:01;;;;;;;;;;;;;;;23.23;55.37;101412.06;7286568;19;151853;-64
2022/07/24 03:36:28;;;;;;;;;;;;;;;23.26;55.49;101405.78;7288319;19;152781;-63
2022/07/24 03:38:55;;;;;;;;;;;;;;;23.22;55.49;101406.75;7287642;19;153237;-63
2022/07/24 03:41:21;;;;;;;;;;;;;;;23.18;55.58;101406.53;7289265;19;152442;-64
2022/07/24 03:43:49;;;;;;;;;;;;;;;23.21;55.62;101422.00;7288310;19;155134;-63
2022/07/24 03:46:16;;;;;;;;;;;;;;;23.17;55.78;101399.22;7286502;19;154127;-63
2022/07/24 03:48:43;;;;;;;;;;;;;;;23.15;55.97;101397.88;7284134;19;152245;-63
2022/07/24 03:51:10;;;;;;;;;;;;;;;23.12;55.99;101412.63;7288048;19;153043;-63
2022/07/24 03:53:37;;;;;;;;;;;;;;;23.14;56.03;101399.88;7293616;19;153467;-64
2022/07/24 03:56:08;;;;;;;;;;;;;;;23.13;56.05;101398.19;7287788;19;153532;-63
2022/07/24 03:58:35;;;;;;;;;;;;;;;23.23;55.44;101399.97;7287751;19;153772;-64
2022/07/24 04:01:05;;;;;;;;;;;;;;;23.21;55.44;101394.66;7286652;19;152767;-63
2022/07/24 04:03:32;;;;;;;;;;;;;;;23.21;55.72;101402.28;7285098;19;153313;-63
2022/07/24 04:06:03;;;;;;;;;;;;;;;23.12;55.89;101398.53;7284783;19;152994;-63
2022/07/24 04:08:30;;;;;;;;;;;;;;;23.09;55.56;101404.78;7285508;19;153904;-63
2022/07/24 04:10:57;;;;;;;;;;;;;;;23.16;55.79;101399.56;7287770;19;153480;-63
2022/07/24 04:13:24;;;;;;;;;;;;;;;23.13;55.56;101395.38;7286562;19;153181;-63
2022/07/24 04:15:51;;;;;;;;;;;;;;;23.19;55.59;101396.09;7294086;19;152448;-63
2022/07/24 04:18:18;;;;;;;;;;;;;;;23.12;55.39;101387.25;7287541;19;154040;-63
2022/07/24 04:20:45;;;;;;;;;;;;;;;23.10;55.53;101390.38;7284429;19;152418;-63
2022/07/24 04:23:12;;;;;;;;;;;;;;;23.15;55.23;101392.25;7287697;19;155099;-63
2022/07/24 04:25:39;;;;;;;;;;;;;;;23.10;55.51;101396.00;7285939;19;154491;-64
2022/07/24 04:28:05;;;;;;;;;;;;;;;23.04;55.61;101388.81;7287624;19;152037;-63
2022/07/24 04:30:32;;;;;;;;;;;;;;;23.01;56.01;101390.28;7283861;19;154030;-63
2022/07/24 04:32:59;;;;;;;;;;;;;;;23.09;55.70;101382.22;7286409;19;152722;-63
2022/07/24 04:35:26;;;;;;;;;;;;;;;23.10;55.38;101386.72;7290500;19;154077;-63
2022/07/24 04:37:52;;;;;;;;;;;;;;;23.02;55.92;101380.69;7285304;19;153230;-63
2022/07/24 04:40:19;;;;;;;;;;;;;;;23.12;55.63;101378.78;7288296;19;152576;-63
2022/07/24 04:42:46;;;;;;;;;;;;;;;23.08;55.48;101389.84;7285742;19;153390;-63
2022/07/24 04:45:12;;;;;;;;;;;;;;;23.09;55.57;101383.06;7284321;19;153929;-63
2022/07/24 04:47:39;;;;;;;;;;;;;;;23.07;55.36;101388.19;7287677;19;153998;-63
2022/07/24 04:50:07;;;;;;;;;;;;;;;23.11;55.55;101388.41;7282477;19;154136;-63
2022/07/24 04:52:34;;;;;;;;;;;;;;;23.06;55.69;101394.97;7285133;19;153027;-63
2022/07/24 04:55:00;;;;;;;;;;;;;;;23.03;55.66;101401.25;7286175;19;152009;-63
2022/07/24 04:57:27;;;;;;;;;;;;;;;23.03;55.65;101399.25;7293232;19;152625;-63
2022/07/24 04:59:54;;;;;;;;;;;;;;;23.03;55.88;101392.81;7287127;19;152875;-63
2022/07/24 05:02:20;;;;;;;;;;;;;;;23.03;55.59;101395.63;7286743;19;152631;-63
2022/07/24 05:04:47;;;;;;;;;;;;;;;23.09;54.98;101402.78;7281321;19;152823;-63
2022/07/24 05:07:14;;;;;;;;;;;;;;;22.97;55.79;101394.88;7286074;19;152592;-63
2022/07/24 05:09:40;;;;;;;;;;;;;;;23.01;55.79;101389.44;7283800;19;152933;-63
2022/07/24 05:12:16;;;;;;;;;;;;;;;23.11;55.08;101389.22;7285285;19;153282;-64
2022/07/24 05:14:42;;;;;;;;;;;;;;;23.09;54.97;101387.88;7284929;19;153005;-63
2022/07/24 05:17:09;;;;;;;;;;;;;;;23.01;55.91;101390.28;7285109;19;153047;-63
2022/07/24 05:19:36;;;;;;;;;;;;;;;23.01;55.65;101395.91;7290042;19;153251;-63
2022/07/24 05:22:02;;;;;;;;;;;;;;;22.99;55.67;101391.72;7285536;19;152875;-63
2022/07/24 05:24:29;;;;;;;;;;;;;;;22.98;55.63;101384.44;7283550;19;153458;-63
2022/07/24 05:26:56;;;;;;;;;;;;;;;22.98;55.67;101393.75;7286142;19;151923;-63
2022/07/24 05:29:23;;;;;;;;;;;;;;;22.97;55.74;101385.59;7283534;19;153546;-64
2022/07/24 05:31:51;;;;;;;;;;;;;;;23.01;55.76;101373.38;7284291;19;154258;-63
2022/07/24 05:34:18;;;;;;;;;;;;;;;23.01;55.26;101389.44;7282881;19;152373;-64
2022/07/24 05:36:44;;;;;;;;;;;;;;;22.96;55.54;101372.66;7284686;19;152620;-63
2022/07/24 05:39:11;;;;;;;;;;;;;;;22.96;55.46;101384.75;7285259;19;154062;-63
2022/07/24 05:41:38;;;;;;;;;;;;;;;22.96;55.66;101376.31;7289790;19;152474;-64
2022/07/24 05:44:05;;;;;;;;;;;;;;;22.99;55.40;101372.00;7283221;19;152587;-63
2022/07/24 05:46:32;;;;;;;;;;;;;;;23.04;55.46;101383.16;7285271;19;152722;-63
2022/07/24 05:48:59;;;;;;;;;;;;;;;22.96;55.68;101381.94;7281916;19;152578;-63
2022/07/24 05:51:26;;;;;;;;;;;;;;;22.91;55.63;101382.03;7281437;19;153946;-63
2022/07/24 05:53:52;;;;;;;;;;;;;;;22.95;55.64;101394.34;7283328;19;151860;-63
2022/07/24 05:56:19;;;;;;;;;;;;;;;22.90;55.73;101385.16;7285650;19;154284;-64
2022/07/24 05:58:46;;;;;;;;;;;;;;;22.92;55.87;101385.69;7284132;19;153371;-63
2022/07/24 06:01:16;;;;;;;;;;;;;;;22.90;56.19;101382.34;7285580;19;151926;-63
2022/07/24 06:03:43;;;;;;;;;;;;;;;22.91;55.91;101379.22;7286613;19;152561;-63
2022/07/24 06:06:10;;;;;;;;;;;;;;;22.90;55.87;101380.38;7282288;19;152235;-64
2022/07/24 06:08:38;;;;;;;;;;;;;;;22.87;56.20;101371.72;7283478;19;152782;-63
2022/07/24 06:11:04;;;;;;;;;;;;;;;22.87;56.54;101371.72;7282581;19;153340;-63
2022/07/24 06:13:31;;;;;;;;;;;;;;;22.96;56.22;101364.19;7284756;19;154163;-63
2022/07/24 06:15:59;;;;;;;;;;;;;;;22.90;56.52;101365.44;7284360;19;152007;-63
2022/07/24 06:18:26;;;;;;;;;;;;;;;22.93;56.27;101378.91;7281658;19;153089;-64
2022/07/24 06:20:53;;;;;;;;;;;;;;;22.90;56.60;101356.97;7283017;19;152053;-63
2022/07/24 06:23:20;;;;;;;;;;;;;;;22.99;56.46;101363.53;7285583;19;152983;-63
2022/07/24 06:25:47;;;;;;;;;;;;;;;22.91;56.36;101359.50;7290549;19;151987;-63
2022/07/24 06:28:14;;;;;;;;;;;;;;;22.88;56.61;101370.56;7284490;19;153325;-63
2022/07/24 06:30:41;;;;;;;;;;;;;;;22.97;56.48;101360.22;7281160;19;154495;-63
2022/07/24 06:33:07;;;;;;;;;;;;;;;;;;7282719;19;152070;-63
2022/07/24 06:35:34;;;;;;;;;;;;;;;22.90;56.75;101365.44;7279307;19;182831;-63
2022/07/24 06:38:01;;;;;;;;;;;;;;;22.93;56.31;101357.22;7283053;19;153601;-63
2022/07/24 06:40:28;;;;;;;;;;;;;;;22.86;56.79;101350.31;7283932;19;152320;-63
2022/07/24 06:42:55;;;;;;;;;;;;;;;22.88;56.82;101357.31;7284593;19;152575;-63
2022/07/24 06:45:22;;;;;;;;;;;;;;;22.97;56.70;101355.44;7289990;19;154035;-63
2022/07/24 06:47:49;;;;;;;;;;;;;;;22.92;56.81;101358.34;7283045;19;153786;-63
2022/07/24 06:50:16;;;;;;;;;;;;;;;22.91;56.81;101347.38;7276601;19;153841;-64
2022/07/24 06:52:43;;;;;;;;;;;;;;;22.88;56.50;101373.38;7284718;19;152693;-63
2022/07/24 06:55:09;;;;;;;;;;;;;;;22.91;56.94;101353.84;7289311;19;152628;-63
2022/07/24 06:57:36;;;;;;;;;;;;;;;22.83;57.10;101345.31;7288424;19;152576;-63
2022/07/24 07:00:04;;;;;;;;;;;;;;;22.97;56.46;101348.94;7288903;19;152187;-63
2022/07/24 07:02:31;;;;;;;;;;;;;;;22.83;56.91;101350.94;7288538;19;151735;-63
2022/07/24 07:04:58;;;;;;;;;;;;;;;22.93;56.88;101339.47;7285598;19;154464;-63
2022/07/24 07:07:25;;;;;;;;;;;;;;;22.87;56.87;101347.19;7296621;19;152851;-63
2022/07/24 07:09:52;;;;;;;;;;;;;;;22.98;56.32;101337.38;7286121;19;154457;-64
2022/07/24 07:12:18;;;;;;;;;;;;;;;22.81;57.34;101342.81;7289390;19;152456;-63
2022/07/24 07:14:45;;;;;;;;;;;;;;;22.83;57.04;101340.50;7288959;19;152970;-63
2022/07/24 07:17:12;;;;;;;;;;;;;;;22.82;56.93;101335.19;7286444;19;153797;-63
2022/07/24 07:19:38;;;;;;;;;;;;;;;22.83;57.09;101326.44;7286807;19;152266;-63
2022/07/24 07:22:05;;;;;;;;;;;;;;;22.82;57.28;101333.22;7288364;19;153771;-63
2022/07/24 07:24:32;;;;;;;;;;;;;;;22.87;56.68;101335.06;7288000;19;153441;-63
2022/07/24 07:26:58;;;;;;;;;;;;;;;22.80;57.29;101329.06;7289243;19;152919;-63
2022/07/24 07:29:25;;;;;;;;;;;;;;;22.84;56.97;101333.75;7294137;19;153374;-63
2022/07/24 07:31:56;;;;;;;;;;;;;;;22.90;56.25;101334.44;7289147;19;151935;-63
2022/07/24 07:34:22;;;;;;;;;;;;;;;22.82;56.55;101323.91;7286620;19;154097;-63
2022/07/24 07:36:49;;;;;;;;;;;;;;;22.83;56.43;101320.78;7286836;19;153574;-63
2022/07/24 07:39:16;;;;;;;;;;;;;;;22.82;56.70;101323.91;7286712;19;152014;-63
2022/07/24 07:41:43;;;;;;;;;;;;;;;22.85;56.56;101323.31;7289024;19;153850;-63
2022/07/24 07:44:09;;;;;;;;;;;;;;;22.80;56.69;101315.81;7287347;19;153206;-63
2022/07/24 07:46:36;;;;;;;;;;;;;;;22.81;56.45;101314.63;7288204;19;151701;-63
2022/07/24 07:49:06;;;;;;;;;;;;;;;22.96;55.87;101328.38;7285432;19;153435;-63
2022/07/24 07:51:33;;;;;;;;;;;;;;;23.00;55.76;101312.50;7294157;19;153670;-63
2022/07/24 07:54:01;;;;;;;;;;;;;;;22.98;55.36;101314.00;7287986;19;153723;-63
2022/07/24 07:56:30;;;;;;;;;;;;;;;22.89;55.81;101316.72;7286603;19;152967;-63
2022/07/24 07:58:57;;;;;;;;;;;;;;;22.92;55.60;101318.91;7287939;19;151874;-63
2022/07/24 08:01:27;;;;;;;;;;;;;;;22.95;55.34;101308.97;7288053;19;152795;-64
2022/07/24 08:03:53;;;;;;;;;;;;;;;22.93;55.71;101300.84;7281714;19;154124;-63
2022/07/24 08:06:20;;;;;;;;;;;;;;;22.98;55.68;101316.81;7286895;19;152549;-63
2022/07/24 08:08:49;;;;;;;;;;;;;;;22.89;55.30;101313.91;7287810;19;154377;-63
2022/07/24 08:11:16;;;;;;;;;;;;;;;22.91;55.49;101311.59;7285335;19;153198;-63
2022/07/24 08:13:43;;;;;;;;;;;;;;;22.89;55.04;101316.72;7295865;19;151617;-63
2022/07/24 08:16:10;;;;;;;;;;;;;;;22.90;55.26;101300.63;7286651;19;152207;-63
2022/07/24 08:18:37;;;;;;;;;;;;;;;22.90;55.33;101320.34;7285448;19;154176;-63
2022/07/24 08:21:04;;;;;;;;;;;;;;;22.90;55.25;101312.72;7286639;19;153931;-63
2022/07/24 08:23:30;;;;;;;;;;;;;;;;;;7284067;19;153958;-63
2022/07/24 08:25:57;;;;;;;;;;;;;;;22.90;54.59;101314.72;7285732;19;159008;-63
2022/07/24 08:28:25;;;;;;;;;;;;;;;22.96;54.62;101307.81;7287902;19;153307;-63
2022/07/24 08:30:51;;;;;;;;;;;;;;;22.89;54.63;101310.25;7284855;19;154522;-63
2022/07/24 08:33:19;;;;;;;;;;;;;;;22.94;54.30;101310.16;7293830;19;152814;-65
2022/07/24 08:35:45;;;;;;;;;;;;;;;22.98;54.19;101326.09;7281397;19;154820;-63
2022/07/24 08:38:12;;;;;;;;;;;;;;;23.00;53.75;101317.31;7287676;19;152484;-64
2022/07/24 08:40:39;;;;;;;;;;;;;;;23.05;53.10;101308.75;7287741;19;154049;-63
2022/07/24 08:43:07;;;;;;;;;;;;;;;23.08;53.44;101305.28;7286111;19;153990;-63
2022/07/24 08:45:35;;;;;;;;;;;;;;;22.98;53.80;101297.91;7286939;19;154430;-63
2022/07/24 08:48:03;;;;;;;;;;;;;;;22.97;53.64;101292.59;7286448;19;153569;-63
2022/07/24 08:50:34;;;;;;;;;;;;;;;22.95;53.79;101298.53;7280516;19;153292;-63
2022/07/24 08:53:01;;;;;;;;;;;;;;;23.00;53.62;101292.78;7286950;19;152174;-63
2022/07/24 08:55:29;;;;;;;;;;;;;;;23.00;53.78;101281.50;7292649;19;153392;-63
2022/07/24 08:57:58;;;;;;;;;;;;;;;23.08;53.45;101284.75;7286963;19;154893;-63
2022/07/24 09:00:26;;;;;;;;;;;;;;;23.01;53.54;101288.81;7286048;19;152856;-63
2022/07/24 09:02:52;;;;;;;;;;;;;;;23.05;53.75;101267.31;7283992;19;154968;-63
2022/07/24 09:05:20;;;;;;;;;;;;;;;23.01;53.80;101283.19;7285285;19;152245;-63
2022/07/24 09:08:05;;;;;;;;;;;;;;;23.08;53.63;101270.66;7283358;19;151980;-63
2022/07/24 09:10:33;;;;;;;;;;;;;;;23.07;53.37;101272.63;7281837;19;154381;-63
2022/07/24 09:13:11;;;;;;;;;;;;;;;23.13;53.21;101268.53;7286212;19;154974;-63
2022/07/24 09:15:48;;;;;;;;;;;;;;;23.11;52.59;101264.38;7284386;19;154399;-63
2022/07/24 09:18:29;;;;;;;;;;;;;;;23.12;52.37;101266.88;7290965;19;153726;-64
2022/07/24 09:20:57;;;;;;;;;;;;;;;23.14;52.50;101256.09;7285682;19;153505;-64
2022/07/24 09:23:25;;;;;;;;;;;;;;;23.16;52.14;101267.91;7286044;19;154304;-63
2022/07/24 09:25:52;;;;;;;;;;;;;;;23.17;52.28;101249.81;7286709;19;152922;-63
2022/07/24 09:28:19;;;;;;;;;;;;;;;23.14;52.16;101258.91;7287270;19;153295;-63
2022/07/24 09:30:48;;;;;;;;;;;;;;;23.19;51.97;101238.22;7282842;19;153146;-64
2022/07/24 09:33:16;;;;;;;;;;;;;;;23.18;51.82;101245.00;7285425;19;152724;-63
2022/07/24 09:35:45;;;;;;;;;;;;;;;23.21;51.83;101245.22;7282448;19;152648;-63
2022/07/24 09:38:12;;;;;;;;;;;;;;;23.25;51.13;101239.78;7285167;19;154406;-63
2022/07/24 09:40:40;;;;;;;;;;;;;;;23.25;51.50;101234.97;7293843;19;152143;-64
2022/07/24 09:43:19;;;;;;;;;;;;;;;23.27;51.07;101227.00;7281820;19;153966;-63
2022/07/24 09:45:52;;;;;;;;;;;;;;;23.30;51.38;101237.69;7286205;19;152454;-63
2022/07/24 09:48:23;;;;;;;;;;;;;;;23.33;50.90;101233.38;7285520;19;153311;-63
2022/07/24 09:50:51;;;;;;;;;;;;;;;23.35;51.04;101225.41;7280552;19;154134;-63
2022/07/24 09:53:18;;;;;;;;;;;;;;;23.36;51.22;101216.63;7284577;19;152445;-64
2022/07/24 09:55:55;;;;;;;;;;;;;;;23.39;50.73;101221.63;7283966;19;152963;-63
2022/07/24 09:58:22;;;;;;;;;;;;;;;23.44;50.38;101221.53;7284676;19;153944;-64
2022/07/24 10:00:49;;;;;;;;;;;;;;;23.47;50.30;101209.63;7285053;19;151978;-63
2022/07/24 10:03:18;;;;;;;;;;;;;;;23.49;50.28;101210.13;7289242;19;153202;-63
2022/07/24 10:05:46;;;;;;;;;;;;;;;23.56;50.24;101217.28;7282350;19;152806;-63
2022/07/24 10:08:13;;;;;;;;;;;;;;;23.61;49.05;101219.97;7285966;19;154282;-64
2022/07/24 10:10:43;;;;;;;;;;;;;;;23.65;50.17;101213.38;7281596;19;153265;-63
2022/07/24 10:13:10;;;;;;;;;;;;;;;23.69;49.85;101224.84;7282883;19;151607;-63
2022/07/24 10:15:47;;;;;;;;;;;;;;;23.73;49.17;101218.22;7283916;19;153164;-63
2022/07/24 10:18:15;;;;;;;;;;;;;;;23.78;47.95;101220.91;7283439;19;152225;-63
2022/07/24 10:20:44;;;;;;;;;;;;;;;23.81;48.76;101220.25;7281386;19;152171;-63
2022/07/24 10:23:34;;;;;;;;;;;;;;;23.86;48.33;101222.94;7283734;19;153970;-63
2022/07/24 10:26:06;;;;;;;;;;;;;;;23.91;48.47;101210.66;7289601;19;153974;-64
2022/07/24 10:28:39;;;;;;;;;;;;;;;23.93;47.79;101209.22;7284457;19;153085;-63
2022/07/24 10:31:07;;;;;;;;;;;;;;;23.97;48.48;101206.56;7281051;19;153186;-64
2022/07/24 10:33:35;;;;;;;;;;;;;;;24.02;48.10;101206.41;7282431;19;152298;-63
2022/07/24 10:36:03;;;;;;;;;;;;;;;24.06;47.64;101209.41;7282737;19;153803;-63
2022/07/24 10:38:36;;;;;;;;;;;;;;;24.07;47.10;101206.28;7282808;19;154107;-63
2022/07/24 10:41:21;;;;;;;;;;;;;;;24.12;47.43;101213.75;7282721;19;152895;-64
2022/07/24 10:44:08;;;;;;;;;;;;;;;24.14;46.92;101200.13;7284074;19;154259;-63
2022/07/24 10:46:55;;;;;;;;;;;;;;;24.19;47.22;101211.31;7288422;19;153841;-63
2022/07/24 10:49:38;;;;;;;;;;;;;;;24.21;46.81;101204.16;7281988;19;153687;-64
2022/07/24 10:52:12;;;;;;;;;;;;;;;24.23;46.77;101190.56;7282045;19;154019;-64
2022/07/24 10:54:39;;;;;;;;;;;;;;;24.26;47.12;101204.03;7282003;19;152350;-63
2022/07/24 10:57:06;;;;;;;;;;;;;;;24.29;46.54;101174.31;7284645;19;153535;-63
2022/07/24 10:59:35;;;;;;;;;;;;;;;24.32;46.69;101207.53;7282605;19;153271;-64
2022/07/24 11:02:20;;;;;;;;;;;;;;;24.35;46.76;101189.91;7282579;19;151801;-64
2022/07/24 11:04:47;;;;;;;;;;;;;;;24.41;45.49;101182.97;7279510;19;152875;-64
2022/07/24 11:07:14;;;;;;;;;;;;;;;24.43;45.59;101191.13;7281405;19;153268;-64
2022/07/24 11:09:59;;;;;;;;;;;;;;;24.44;45.77;101179.47;7290072;19;151725;-63
2022/07/24 11:12:31;;;;;;;;;;;;;;;24.47;45.92;101187.31;7281114;19;153774;-63
2022/07/24 11:17:51;;;;;;;;;;;;;;;24.53;45.81;101180.31;7282954;19;152654;-64
2022/07/24 11:20:19;;;;;;;;;;;;;;;24.55;45.58;101168.69;7277890;19;154151;-63
2022/07/24 11:22:48;;;;;;;;;;;;;;;24.57;45.71;101200.28;7281979;19;152349;-64
2022/07/24 11:25:16;;;;;;;;;;;;;;;24.61;45.26;101178.69;7280926;19;153130;-64
2022/07/24 11:27:44;;;;;;;;;;;;;;;24.63;45.50;101174.34;7281319;19;153986;-64
2022/07/24 11:30:11;;;;;;;;;;;;;;;24.64;45.19;101164.72;7281592;19;152911;-63
2022/07/24 11:32:40;;;;;;;;;;;;;;;24.67;45.37;101174.53;7288785;19;152864;-63
2022/07/24 11:35:08;;;;;;;;;;;;;;;24.68;45.55;101170.53;7278207;19;152008;-64
2022/07/24 11:37:36;;;;;;;;;;;;;;;24.70;45.46;101171.06;7281880;19;152713;-64
2022/07/24 11:40:05;;;;;;;;;;;;;;;24.72;44.63;101160.22;7284201;19;153531;-64
2022/07/24 11:42:31;;;;;;;;;;;;;;;24.76;44.76;101169.69;7286883;19;152598;-64
2022/07/24 11:44:58;;;;;;;;;;;;;;;24.78;44.53;101151.28;7288701;19;153423;-64
2022/07/24 11:47:26;;;;;;;;;;;;;;;24.80;44.84;101156.59;7287926;19;153128;-63
2022/07/24 11:50:04;;;;;;;;;;;;;;;24.82;44.73;101140.13;7286133;19;152250;-63
2022/07/24 11:52:32;;;;;;;;;;;;;;;24.81;44.51;101139.28;7288429;19;153134;-63
2022/07/24 11:55:02;;;;;;;;;;;;;;;24.89;43.57;101165.09;7294022;19;153161;-63
2022/07/24 11:57:35;;;;;;;;;;;;;;;24.88;44.14;101152.13;7288362;19;153579;-64
2022/07/24 12:00:24;;;;;;;;;;;;;;;24.91;43.85;101140.97;7286273;19;156488;-64
2022/07/24 12:02:58;;;;;;;;;;;;;;;24.92;43.86;101137.00;7287623;19;152068;-64
2022/07/24 12:05:29;;;;;;;;;;;;;;;24.94;44.08;101160.09;7285090;19;152970;-64
2022/07/24 12:07:56;;;;;;;;;;;;;;;24.95;42.66;101141.97;7287102;19;153911;-63
2022/07/24 12:10:23;;;;;;;;;;;;;;;24.99;42.63;101156.25;7285931;19;151981;-63
2022/07/24 12:12:53;;;;;;;;;;;;;;;24.99;43.37;101151.44;7287365;19;153240;-64
2022/07/24 12:15:21;;;;;;;;;;;;;;;25.01;43.51;101137.81;7286916;19;154021;-64
2022/07/24 12:17:57;;;;;;;;;;;;;;;25.02;43.06;101133.00;7296005;19;152188;-64
2022/07/24 12:20:25;;;;;;;;;;;;;;;25.02;43.27;101125.34;7283323;19;153931;-64
2022/07/24 12:22:52;;;;;;;;;;;;;;;25.02;43.18;101105.56;7286921;19;152556;-64
2022/07/24 12:25:20;;;;;;;;;;;;;;;25.03;43.32;101135.47;7287694;19;153388;-63
2022/07/24 12:27:52;;;;;;;;;;;;;;;25.04;43.30;101105.19;7287236;19;154200;-64
2022/07/24 12:30:21;;;;;;;;;;;;;;;25.06;43.43;101108.53;7287874;19;153829;-63
2022/07/24 12:33:02;;;;;;;;;;;;;;;25.09;43.28;101099.38;7287484;19;153312;-64
2022/07/24 12:35:30;;;;;;;;;;;;;;;25.09;43.44;101085.25;7283332;19;153629;-64